• Join FlightAware (Why Join?)
  • Login
  • US Flag 
05:46PM EST


 

Airport Tracker/Info


-or-


 

Live Flight TrackerFlight Track Log ✈ A6-EDY ✈ 07-Apr-2013 ✈ OMDB / DXB - LIRF / FCO

Flight Track Log - Related Links

Times and Time Zones

All times are in EDT time to prevent confusion due to time zone crossing. See the A6-EDY flight status page for this flight to view local times or setup timezone preferences in your user account.

Time Position Orientation Groundspeed Altitude Reporting Facility
EDT Latitude Longitude Course Direction KTS MPH feet Rate Location/Type
03:01AM 25.2670 55.3460 300° West 160 184 700  Level FlightAware
03:02AM 25.2750 55.3310 301° West 160 184 700 1,920 Level FlightAware
03:03AM 25.3250 55.2340 300° West 229 264 4,900 1,980 Climbing FlightAware
03:04AM 25.3280 55.2070 277° West 229 264 5,000 2,700 Climbing FlightAware
03:05AM 25.2840 55.0960 246° West 253 291 9,900 3,180 Climbing FlightAware
03:06AM 25.2610 55.0460 243° Southwest 257 296 12,000 2,460 Climbing FlightAware
03:07AM 25.2390 54.9900 247° West 276 318 13,600 1,920 Climbing FlightAware
03:07AM 25.2250 54.9330 255° West 298 343 14,800 1,920 Climbing FlightAware
03:08AM 25.2070 54.8650 254° West 310 357 16,400 1,920 Climbing FlightAware
03:09AM 25.1930 54.8020 256° West 328 377 17,600 1,620 Climbing FlightAware
03:10AM 25.1780 54.7290 257° West 350 403 18,700 1,320 Climbing FlightAware
03:10AM 25.1640 54.6550 258° West 376 433 19,500 1,920 Climbing FlightAware
03:11AM 25.1510 54.5800 259° West 368 423 21,300 1,740 Climbing FlightAware
03:12AM 25.1560 54.4940 274° West 390 449 22,000 1,260 Climbing FlightAware
03:12AM 25.1900 54.4190 297° West 397 457 23,100 2,280 Climbing FlightAware
03:13AM 25.2200 54.3480 295° West 384 442 25,100 1,860 Climbing FlightAware
03:14AM 25.2550 54.2670 296° West 400 460 25,800 960 Climbing FlightAware
03:14AM 25.2790 54.2140 297° West 414 476 26,300 1,080 Climbing FlightAware
03:15AM 25.3150 54.1300 295° West 419 482 27,200 1,440 Climbing FlightAware
03:16AM 25.3600 54.0250 295° West 425 489 28,600 1,560 Climbing FlightAware
03:17AM 25.4050 53.9200 295° West 424 488 30,000 1,440 Climbing FlightAware
03:17AM 25.4350 53.8490 295° West 424 488 30,800 720 Climbing FlightAware
03:20AM 25.5673 53.6486 306° West  Level Estimated
03:21AM 25.6261 53.5593 306° West  Level Estimated
03:22AM 25.6847 53.4700 306° West  Level Estimated
03:22AM 25.6860 53.2620 306° West 35,500  Level FlightAware
03:25AM 25.8180 53.0609 306° West  Level Estimated
03:25AM 25.8160 52.9670 306° West 454 522 36,000  Level FlightAware
03:25AM 25.8610 52.8740 298° West 453 521 36,000  Level FlightAware
03:26AM 25.9160 52.7590 298° West 454 522 36,000  Level FlightAware
03:27AM 25.9560 52.6750 298° West 453 521 36,000  Level FlightAware
03:29AM 26.0720 52.4320 298° West 452 520 36,000  Level FlightAware
03:30AM 26.1240 52.3240 298° West 450 518 36,000  Level FlightAware
03:30AM 26.1610 52.2460 298° West 449 517 36,000 60 Level FlightAware
03:31AM 26.2040 52.1550 298° West 446 513 36,100 420 Climbing FlightAware
03:32AM 26.2380 52.0830 298° West 444 511 36,600 900 Climbing FlightAware
03:33AM 26.2830 51.9880 298° West 435 501 37,300 960 Climbing FlightAware
03:33AM 26.3160 51.9180 298° West 427 491 37,900 480 Climbing FlightAware
03:34AM 26.3600 51.8240 298° West 428 493 38,000 60 Climbing FlightAware
03:35AM 26.3940 51.7510 297° West 428 493 38,000  Level FlightAware
03:35AM 26.4410 51.6510 298° West 429 494 38,000  Level FlightAware
03:36AM 26.5000 51.5560 305° West 429 494 38,000  Level FlightAware
03:37AM 26.5480 51.4770 304° West 432 497 38,000  Level FlightAware
03:38AM 26.6140 51.3700 305° West 433 498 38,000  Level FlightAware
03:39AM 26.6670 51.2810 304° West 433 498 38,000  Level FlightAware
03:40AM 26.7050 51.2180 304° West 433 498 38,000  Level FlightAware
03:40AM 26.7430 51.1550 304° West 433 498 38,000  Level FlightAware
03:41AM 26.7810 51.0920 304° West 433 498 38,000  Level FlightAware
03:42AM 26.8290 51.0130 304° West 433 498 38,000  Level FlightAware
03:43AM 26.9530 50.8080 304° West 431 496 38,000  Level FlightAware
03:44AM 26.9960 50.7340 303° West 431 496 38,000  Level FlightAware
03:44AM 27.0330 50.6710 303° West 431 496 38,000  Level FlightAware
03:45AM 27.0700 50.6070 303° West 431 496 38,000  Level FlightAware
03:46AM 27.1070 50.5430 303° West 431 496 38,000  Level FlightAware
03:46AM 27.1430 50.4790 302° West 431 496 38,000  Level FlightAware
03:47AM 27.1800 50.4150 303° West 431 496 38,000  Level FlightAware
03:48AM 27.2170 50.3510 303° West 431 496 38,000  Level FlightAware
03:49AM 27.2630 50.2710 303° West 431 496 38,000  Level FlightAware
03:49AM 27.3000 50.2070 303° West 431 496 38,000  Level FlightAware
03:50AM 27.3470 50.1270 303° West 431 496 38,000  Level FlightAware
03:51AM 27.3830 50.0630 302° West 431 496 38,000  Level FlightAware
03:51AM 27.4200 49.9990 303° West 431 496 38,000  Level FlightAware
03:52AM 27.4670 49.9190 304° West 431 496 38,000  Level FlightAware
03:53AM 27.5040 49.8550 303° West 431 496 38,000  Level FlightAware
03:54AM 27.6850 49.6080 310° West 422 486 38,000  Level FlightAware
03:55AM 27.7400 49.5430 314° West 422 486 38,000  Level FlightAware
03:55AM 27.7850 49.4880 313° West 422 486 38,000  Level FlightAware
03:56AM 27.8780 49.4470 339° North 430 495 38,000  Level FlightAware
03:57AM 27.9530 49.3860 324° Northwest 430 495 38,000  Level FlightAware
03:57AM 28.0160 49.3430 329° Northwest 427 491 38,000  Level FlightAware
03:58AM 28.0820 49.3030 332° Northwest 425 489 38,000  Level FlightAware
03:59AM 28.1650 49.2500 331° Northwest 423 487 38,000  Level FlightAware
03:59AM 28.2250 49.2130 331° Northwest 420 483 38,000  Level FlightAware
04:00AM 28.3150 49.1570 331° Northwest 420 483 38,000  Level FlightAware
04:01AM 28.3850 49.1130 331° Northwest 422 486 38,000  Level FlightAware
04:02AM 28.4570 49.0620 328° Northwest 424 488 38,000  Level FlightAware
04:02AM 28.5220 49.0160 328° Northwest 424 488 38,000  Level FlightAware
04:03AM 28.5870 48.9690 328° Northwest 423 487 38,000  Level FlightAware
04:04AM 28.6510 48.9230 328° Northwest 422 486 38,000  Level FlightAware
04:04AM 28.7310 48.8650 328° Northwest 420 483 38,000  Level FlightAware
04:05AM 28.7970 48.8170 327° Northwest 419 482 38,000  Level FlightAware
04:06AM 28.8760 48.7600 328° Northwest 417 480 38,000  Level FlightAware
04:07AM 28.9450 48.7100 328° Northwest 415 478 38,000  Level FlightAware
04:07AM 29.0060 48.6660 328° Northwest 415 478 38,000  Level FlightAware
04:08AM 29.0690 48.6200 327° Northwest 415 478 38,000  Level FlightAware
04:09AM 29.1350 48.5720 328° Northwest 415 478 38,000  Level FlightAware
04:09AM 29.2010 48.5240 328° Northwest 415 478 38,000  Level FlightAware
04:10AM 29.2720 48.4720 327° Northwest 414 476 38,000  Level FlightAware
04:11AM 29.3230 48.4350 328° Northwest 414 476 38,000  Level FlightAware
04:11AM 29.3870 48.3870 327° Northwest 416 479 38,000  Level FlightAware
04:12AM 29.4340 48.3530 328° Northwest 416 479 38,000  Level FlightAware
04:12AM 29.5030 48.3020 327° Northwest 418 481 38,000  Level FlightAware
04:13AM 29.5440 48.2720 328° Northwest 418 481 38,000  Level FlightAware
04:14AM 29.6380 48.2030 327° Northwest 416 479 38,000  Level FlightAware
04:14AM 29.6830 48.1700 328° Northwest 415 478 38,000  Level FlightAware
04:15AM 29.7420 48.1260 327° Northwest 413 475 38,000  Level FlightAware
04:16AM 29.8050 48.0800 328° Northwest 413 475 38,000  Level FlightAware
04:16AM 29.8730 48.0290 327° Northwest 413 475 38,000  Level FlightAware
04:17AM 29.9270 47.9880 327° Northwest 414 476 38,000  Level FlightAware
04:18AM 30.0070 47.9300 328° Northwest 415 478 38,000  Level FlightAware
04:18AM 30.0740 47.8690 322° Northwest 414 476 38,000  Level FlightAware
04:19AM 30.1380 47.8080 321° Northwest 410 472 38,000  Level FlightAware
04:20AM 30.2310 47.7190 320° Northwest 409 471 38,000  Level FlightAware
04:21AM 30.2850 47.6670 320° Northwest 411 473 38,000  Level FlightAware
04:21AM 30.3200 47.6330 320° Northwest 411 473 38,000  Level FlightAware
04:22AM 30.3830 47.5730 321° Northwest 412 474 38,000  Level FlightAware
04:23AM 30.4570 47.5000 320° Northwest 412 474 38,000  Level FlightAware
04:24AM 30.5190 47.4400 320° Northwest 412 474 38,000  Level FlightAware
04:24AM 30.5570 47.4040 321° Northwest 412 474 38,000  Level FlightAware
04:25AM 30.6540 47.3110 320° Northwest 410 472 38,000  Level FlightAware
04:26AM 30.7040 47.2620 320° Northwest 410 472 38,000  Level FlightAware
04:27AM 30.7650 47.2020 320° Northwest 410 472 38,000  Level FlightAware
04:27AM 30.8030 47.1660 321° Northwest 410 472 38,000  Level FlightAware
04:28AM 30.8520 47.1180 320° Northwest 410 472 38,000  Level FlightAware
04:29AM 30.9680 47.0060 320° Northwest 38,000  Level FlightAware
04:30AM 31.1140 46.8630 301° West 406 467 38,000  Level FlightAware
04:31AM 31.0622 46.8235 301° West  Level Estimated
04:31AM 31.1610 46.8150 319° Northwest 406 467 38,000  Level FlightAware
04:32AM 31.2090 46.7660 319° Northwest 406 467 38,000  Level FlightAware
04:32AM 31.2570 46.7170 319° Northwest 406 467 38,000  Level FlightAware
04:33AM 31.3050 46.6680 319° Northwest 406 467 38,000  Level FlightAware
04:34AM 31.3780 46.5950 320° Northwest 406 467 38,000  Level FlightAware
04:34AM 31.4140 46.5580 319° Northwest 406 467 38,000  Level FlightAware
04:35AM 31.4620 46.5090 319° Northwest 406 467 38,000  Level FlightAware
04:36AM 31.4980 46.4720 319° Northwest 406 467 38,000  Level FlightAware
04:36AM 31.5460 46.4230 319° Northwest 406 467 38,000  Level FlightAware
04:37AM 31.5820 46.3860 319° Northwest 406 467 38,000  Level FlightAware
04:37AM 31.6310 46.3370 320° Northwest 406 467 38,000  Level FlightAware
04:38AM 31.6670 46.3000 319° Northwest 406 467 38,000  Level FlightAware
04:39AM 31.7150 46.2510 319° Northwest 406 467 38,000  Level FlightAware
04:39AM 31.7510 46.2140 319° Northwest 406 467 38,000  Level FlightAware
04:40AM 31.8110 46.1520 319° Northwest 406 467 38,000  Level FlightAware
04:43AM 31.9395 45.8895 300° West  Level Estimated
04:44AM 31.9891 45.7876 300° West  Level Estimated
04:45AM 32.0386 45.6857 300° West  Level Estimated
04:46AM 32.0881 45.5836 300° West  Level Estimated
04:47AM 32.1374 45.4815 300° West  Level Estimated
04:48AM 32.1867 45.3792 300° West  Level Estimated
04:49AM 32.2359 45.2768 300° West  Level Estimated
04:50AM 32.2850 45.1743 300° West  Level Estimated
04:51AM 32.3340 45.0717 300° West  Level Estimated
04:51AM 32.8990 45.0640 300° West 387 445 38,000  Level FlightAware
04:52AM 32.9470 45.0140 319° Northwest 389 448 38,000  Level FlightAware
04:53AM 33.0180 44.9400 319° Northwest 391 450 38,000  Level FlightAware
04:54AM 33.0910 44.8640 319° Northwest 393 452 38,000  Level FlightAware
04:54AM 33.1560 44.7970 319° Northwest 396 456 38,000  Level FlightAware
04:55AM 33.2320 44.7370 327° Northwest 399 459 38,000  Level FlightAware
04:56AM 33.3090 44.6990 338° Northwest 407 468 38,000  Level FlightAware
04:57AM 33.3800 44.6740 344° North 408 470 38,000  Level FlightAware
04:57AM 33.4380 44.6520 342° North 410 472 38,000  Level FlightAware
04:58AM 33.5070 44.6270 343° North 411 473 38,000  Level FlightAware
04:59AM 33.5990 44.5840 339° North 408 470 38,000  Level FlightAware
05:00AM 33.7150 44.5280 338° Northwest 411 473 38,000  Level FlightAware
05:00AM 33.7710 44.5000 337° Northwest 413 475 38,000  Level FlightAware
05:01AM 33.8530 44.4600 338° Northwest 413 475 38,000  Level FlightAware
05:02AM 33.9270 44.4230 337° Northwest 413 475 38,000  Level FlightAware
05:02AM 33.9960 44.3890 338° Northwest 412 474 38,000  Level FlightAware
05:03AM 34.0950 44.3400 338° Northwest 412 474 38,000  Level FlightAware
05:04AM 34.1480 44.3140 338° Northwest 413 475 38,000  Level FlightAware
05:04AM 34.1990 44.2880 337° Northwest 415 478 38,000  Level FlightAware
05:05AM 34.2660 44.2550 338° Northwest 417 480 38,000  Level FlightAware
05:06AM 34.3530 44.2110 337° Northwest 416 479 38,000  Level FlightAware
05:06AM 34.4280 44.1740 338° Northwest 414 476 38,000  Level FlightAware
05:07AM 34.4880 44.1440 338° Northwest 413 475 38,000  Level FlightAware
05:08AM 34.5660 44.1040 337° Northwest 412 474 38,000  Level FlightAware
05:08AM 34.6210 44.0750 337° Northwest 413 475 38,000  Level FlightAware
05:09AM 34.6730 44.0470 336° Northwest 413 475 38,000  Level FlightAware
05:09AM 34.7440 44.0100 337° Northwest 415 478 38,000  Level FlightAware
05:10AM 34.8040 43.9790 337° Northwest 416 479 38,000  Level FlightAware
05:11AM 34.8750 43.9410 336° Northwest 417 480 38,000  Level FlightAware
05:11AM 34.9460 43.9040 337° Northwest 416 479 38,000  Level FlightAware
05:12AM 34.9990 43.8760 337° Northwest 416 479 38,000  Level FlightAware
05:12AM 35.0600 43.8430 336° Northwest 415 478 38,000  Level FlightAware
05:13AM 35.1410 43.8010 337° Northwest 415 478 38,000  Level FlightAware
05:14AM 35.2110 43.7630 336° Northwest 414 476 38,000  Level FlightAware
05:14AM 35.2710 43.7310 336° Northwest 414 476 38,000  Level FlightAware
05:15AM 35.3350 43.6970 337° Northwest 414 476 38,000  Level FlightAware
05:15AM 35.3880 43.6690 337° Northwest 416 479 38,000  Level FlightAware
05:16AM 35.4740 43.6230 336° Northwest 421 484 38,000  Level FlightAware
05:17AM 35.5480 43.5840 337° Northwest 423 487 38,000  Level FlightAware
05:17AM 35.6030 43.5540 336° Northwest 425 489 38,000  Level FlightAware
05:18AM 35.6640 43.5210 336° Northwest 426 490 38,000  Level FlightAware
05:19AM 35.7550 43.4730 337° Northwest 427 491 38,000  Level FlightAware
05:19AM 35.8270 43.4340 336° Northwest 429 494 38,000  Level FlightAware
05:20AM 35.9010 43.3940 336° Northwest 433 498 38,000  Level FlightAware
05:21AM 35.9850 43.3480 336° Northwest 436 502 38,000  Level FlightAware
05:22AM 36.0560 43.3100 337° Northwest 436 502 38,000  Level FlightAware
05:22AM 36.1400 43.2640 336° Northwest 435 501 38,000  Level FlightAware
05:23AM 36.2150 43.2230 336° Northwest 435 501 38,000  Level FlightAware
05:24AM 36.2890 43.1820 336° Northwest 438 504 38,000  Level FlightAware
05:24AM 36.3700 43.1370 336° Northwest 440 506 38,000  Level FlightAware
05:25AM 36.4470 43.0950 336° Northwest 443 510 38,000  Level FlightAware
05:26AM 36.5300 43.0490 336° Northwest 441 507 38,000  Level FlightAware
05:26AM 36.6050 43.0070 336° Northwest 439 505 38,000  Level FlightAware
05:27AM 36.6790 42.9660 336° Northwest 438 504 38,000  Level FlightAware
05:28AM 36.7640 42.9180 336° Northwest 437 503 38,000  Level FlightAware
05:29AM 36.8350 42.8790 336° Northwest 439 505 38,000  Level FlightAware
05:29AM 36.9190 42.8330 336° Northwest 439 505 38,000  Level FlightAware
05:30AM 36.9950 42.7910 336° Northwest 440 506 38,000  Level FlightAware
05:31AM 37.0690 42.7500 336° Northwest 440 506 38,000  Level FlightAware
05:31AM 37.1530 42.7030 336° Northwest 439 505 38,000  Level FlightAware
05:32AM 37.2250 42.6580 334° Northwest 435 501 38,000  Level FlightAware
05:33AM 37.3000 42.5910 325° Northwest 432 497 38,000  Level FlightAware
05:33AM 37.3590 42.5230 318° Northwest 433 498 38,000  Level FlightAware
05:34AM 37.4240 42.4480 318° Northwest 433 498 38,000  Level FlightAware
05:35AM 37.4820 42.3810 317° Northwest 431 496 38,000  Level FlightAware
05:36AM 37.5400 42.3140 318° Northwest 430 495 38,000  Level FlightAware
05:36AM 37.6060 42.2370 317° Northwest 429 494 38,000  Level FlightAware
05:37AM 37.6620 42.1720 317° Northwest 428 493 38,000  Level FlightAware
05:38AM 37.7250 42.0990 318° Northwest 427 491 38,000  Level FlightAware
05:38AM 37.7810 42.0320 317° Northwest 427 491 38,000  Level FlightAware
05:39AM 37.8460 41.9560 317° Northwest 427 491 38,000  Level FlightAware
05:40AM 37.9000 41.8730 310° West 424 488 38,000  Level FlightAware
05:40AM 37.9390 41.7850 299° West 420 483 38,000  Level FlightAware
05:41AM 37.9720 41.6800 292° West 418 481 38,000  Level FlightAware
05:42AM 38.0050 41.5750 292° West 414 476 38,000  Level FlightAware
05:43AM 38.0280 41.4980 291° West 414 476 38,000  Level FlightAware
05:43AM 38.0520 41.4210 292° West 414 476 38,000  Level FlightAware
05:44AM 38.0960 41.2820 292° West 402 463 38,000  Level FlightAware
05:45AM 38.1290 41.1730 291° West 401 461 38,000  Level FlightAware
05:46AM 38.1520 41.0980 291° West 401 461 38,000  Level FlightAware
05:46AM 38.1750 41.0230 291° West 401 461 38,000  Level FlightAware
05:47AM 38.1970 40.9480 290° West 401 461 38,000  Level FlightAware
05:48AM 38.2200 40.8730 291° West 401 461 38,000  Level FlightAware
05:49AM 38.2480 40.7800 291° West 401 461 38,000  Level FlightAware
05:49AM 38.2710 40.7050 291° West 401 461 38,000  Level FlightAware
05:50AM 38.2930 40.6300 291° West 401 461 38,000  Level FlightAware
05:51AM 38.3160 40.5550 291° West 401 461 38,000  Level FlightAware
05:51AM 38.3440 40.4610 291° West 401 461 38,000  Level FlightAware
05:52AM 38.3670 40.3860 291° West 401 461 38,000  Level FlightAware
05:53AM 38.3890 40.3110 291° West 401 461 38,000  Level FlightAware
05:53AM 38.4120 40.2350 291° West 401 461 38,000  Level FlightAware
05:54AM 38.4340 40.1600 291° West 401 461 38,000  Level FlightAware
05:57AM 38.5061 39.8733 288° West  Level Estimated
05:58AM 38.5364 39.7520 288° West  Level Estimated
05:59AM 38.5665 39.6306 288° West  Level Estimated
06:00AM 38.5965 39.5091 288° West  Level Estimated
06:01AM 38.6264 39.3874 287° West  Level Estimated
06:02AM 38.6562 39.2657 287° West  Level Estimated
06:03AM 38.6858 39.1439 287° West  Level Estimated
06:04AM 38.7153 39.0220 287° West  Level Estimated
06:05AM 38.7447 38.9000 287° West  Level Estimated
06:06AM 38.7739 38.7778 287° West  Level Estimated
06:07AM 38.8030 38.6556 287° West  Level Estimated
06:08AM 38.8320 38.5333 287° West  Level Estimated
06:09AM 38.8609 38.4109 287° West  Level Estimated
06:10AM 38.8896 38.2884 287° West  Level Estimated
06:11AM 38.9182 38.1657 287° West  Level Estimated
06:12AM 38.9473 38.0405 287° West  Level Estimated
06:13AM 38.9762 37.9151 287° West  Level Estimated
06:14AM 39.0051 37.7896 286° West  Level Estimated
06:15AM 39.0337 37.6640 286° West  Level Estimated
06:16AM 39.0623 37.5383 286° West  Level Estimated
06:17AM 39.0907 37.4126 286° West  Level Estimated
06:18AM 39.1189 37.2867 286° West  Level Estimated
06:19AM 39.1471 37.1607 286° West  Level Estimated
06:20AM 39.1751 37.0346 286° West  Level Estimated
06:21AM 39.2029 36.9084 286° West  Level Estimated
06:22AM 39.2307 36.7821 286° West  Level Estimated
06:23AM 39.2582 36.6557 286° West  Level Estimated
06:24AM 39.2857 36.5293 286° West  Level Estimated
06:25AM 39.3130 36.4027 286° West  Level Estimated
06:26AM 39.3402 36.2760 286° West  Level Estimated
06:27AM 39.3672 36.1492 285° West  Level Estimated
06:28AM 39.3941 36.0223 285° West  Level Estimated
06:29AM 39.4209 35.8954 285° West  Level Estimated
06:30AM 39.4475 35.7683 285° West  Level Estimated
06:31AM 39.4740 35.6411 285° West  Level Estimated
06:32AM 39.5003 35.5138 285° West  Level Estimated
06:32AM 40.0480 34.8950 285° West 404 465 38,000  Level FlightAware
06:33AM 39.5266 35.3865 285° West  Level Estimated
06:33AM 40.0590 34.7940 278° West 405 466 38,000  Level FlightAware
06:34AM 40.0770 34.6490 279° West 404 465 38,000  Level FlightAware
06:35AM 40.1060 34.3950 283° West 409 471 38,000  Level FlightAware
06:36AM 40.1199 34.4073 283° West  Level Estimated
06:37AM 40.1320 34.1630 278° West 410 472 38,000  Level FlightAware
06:38AM 40.1450 34.0510 279° West 408 470 38,000  Level FlightAware
06:40AM 40.1852 33.8196 283° West  Level Estimated
06:40AM 40.1810 33.7140 283° West 401 461 38,000  Level FlightAware
06:43AM 40.2355 33.3957 283° West  Level Estimated
06:43AM 40.2180 33.3500 283° West 406 467 38,000  Level FlightAware
06:44AM 40.2350 33.1790 277° West 405 466 38,000  Level FlightAware
06:45AM 40.2560 33.0490 282° West 417 480 38,000  Level FlightAware
06:45AM 40.2840 32.9430 289° West 419 482 38,000  Level FlightAware
06:46AM 40.3160 32.8200 289° West 416 479 38,000  Level FlightAware
06:47AM 40.3560 32.6640 289° West 411 473 38,000  Level FlightAware
06:49AM 40.4000 32.4930 289° West 416 479 38,000  Level FlightAware
06:51AM 40.4406 32.2380 282° West  Level Estimated
06:51AM 40.4750 32.1950 282° West 430 495 38,000  Level FlightAware
06:52AM 40.5440 31.9640 292° West 432 497 38,000  Level FlightAware
06:53AM 40.5670 31.8850 291° West 427 491 38,000  Level FlightAware
06:54AM 40.6190 31.6860 289° West 423 487 38,000  Level FlightAware
06:56AM 40.6770 31.4480 288° West 423 487 38,000  Level FlightAware
06:56AM 40.7010 31.3520 288° West 425 489 38,000  Level FlightAware
06:57AM 40.7330 31.2200 288° West 418 481 38,000  Level FlightAware
06:58AM 40.7540 31.1330 288° West 407 468 38,000  Level FlightAware
06:59AM 40.7820 31.0150 287° West 403 464 38,000  Level FlightAware
06:59AM 40.8050 30.9220 288° West 404 465 38,000  Level FlightAware
07:00AM 40.8300 30.8140 287° West 412 474 38,000  Level FlightAware
07:01AM 40.8530 30.7180 288° West 412 474 38,000  Level FlightAware
07:01AM 40.8770 30.6040 286° West 409 471 38,000  Level FlightAware
07:02AM 40.8940 30.5070 283° West 408 470 38,000  Level FlightAware
07:03AM 40.9110 30.4110 283° West 411 473 38,000  Level FlightAware
07:04AM 40.9310 30.2970 283° West 413 475 38,000  Level FlightAware
07:04AM 40.9470 30.2060 283° West 415 478 38,000  Level FlightAware
07:05AM 40.9680 30.0880 283° West 416 479 38,000  Level FlightAware
07:06AM 40.9850 29.9890 283° West 416 479 38,000  Level FlightAware
07:06AM 41.0020 29.8880 283° West 418 481 38,000  Level FlightAware
07:07AM 41.0220 29.7740 283° West 423 487 38,000  Level FlightAware
07:08AM 41.0390 29.6740 283° West 424 488 38,000  Level FlightAware
07:08AM 41.0580 29.5600 282° West 424 488 38,000  Level FlightAware
07:09AM 41.0750 29.4570 282° West 426 490 38,000  Level FlightAware
07:10AM 41.0920 29.3530 282° West 429 494 38,000  Level FlightAware
07:11AM 41.1110 29.2390 283° West 432 497 38,000  Level FlightAware
07:11AM 41.1200 29.1400 277° West 424 488 38,000  Level FlightAware
07:12AM 41.1160 29.0200 268° West 415 478 38,000  Level FlightAware
07:13AM 41.1090 28.9310 264° West 418 481 38,000  Level FlightAware
07:13AM 41.1000 28.8150 264° West 422 486 38,000  Level FlightAware
07:14AM 41.0920 28.7010 265° West 423 487 38,000  Level FlightAware
07:15AM 41.0840 28.6060 264° West 424 488 38,000  Level FlightAware
07:15AM 41.0750 28.4790 265° West 424 488 38,000  Level FlightAware
07:16AM 41.0670 28.3810 264° West 422 486 38,000  Level FlightAware
07:17AM 41.0580 28.2610 264° West 421 484 38,000  Level FlightAware
07:18AM 41.0500 28.1580 264° West 423 487 38,000  Level FlightAware
07:18AM 41.0420 28.0550 264° West 425 489 38,000  Level FlightAware
07:19AM 41.0320 27.9400 263° West 425 489 38,000  Level FlightAware
07:20AM 41.0240 27.8320 264° West 428 493 38,000  Level FlightAware
07:20AM 41.0140 27.7180 263° West 431 496 38,000  Level FlightAware
07:21AM 41.0050 27.6120 264° West 434 499 38,000  Level FlightAware
07:22AM 40.9960 27.5070 264° West 436 502 38,000  Level FlightAware
07:22AM 40.9870 27.3940 264° West 435 501 38,000  Level FlightAware
07:23AM 40.9770 27.2820 263° West 435 501 38,000  Level FlightAware
07:24AM 40.9660 27.1620 263° West 439 505 38,000  Level FlightAware
07:25AM 40.9570 27.0570 264° West 442 509 38,000  Level FlightAware
07:25AM 40.9470 26.9480 263° West 442 509 38,000  Level FlightAware
07:26AM 40.9390 26.8520 264° West 442 509 38,000  Level FlightAware
07:26AM 40.9290 26.7430 263° West 445 512 38,000  Level FlightAware
07:27AM 40.9160 26.6090 263° West 443 510 38,000  Level FlightAware
07:28AM 40.9090 26.5290 263° West 443 510 38,000  Level FlightAware
07:29AM 40.8990 26.4210 263° West 443 510 38,000  Level FlightAware
07:29AM 40.8840 26.2670 263° West 443 510 38,000  Level FlightAware
07:30AM 40.8800 26.1690 267° West 38,000  Level FlightAware
07:31AM 40.8720 26.0090 266° West 38,000  Level FlightAware
07:32AM 40.8660 25.9110 265° West 448 516 38,000  Level FlightAware
07:32AM 40.8590 25.8190 264° West 448 516 38,000  Level FlightAware
07:33AM 40.8530 25.6710 267° West 451 519 38,000  Level FlightAware
07:34AM 40.8460 25.5640 265° West 451 519 38,000  Level FlightAware
07:34AM 40.8390 25.4700 264° West 451 519 38,000  Level FlightAware
07:35AM 40.8320 25.3530 266° West 451 519 38,000  Level FlightAware
07:36AM 40.8260 25.2600 265° West 451 519 38,000  Level FlightAware
07:37AM 40.8190 25.1670 264° West 451 519 38,000  Level FlightAware
07:38AM 40.8080 24.9430 266° West 455 524 38,000  Level FlightAware
07:38AM 40.8020 24.8490 265° West 455 524 38,000  Level FlightAware
07:39AM 40.7930 24.7050 265° West 462 532 38,000  Level FlightAware
07:40AM 40.7840 24.5830 264° West 463 533 38,000  Level FlightAware
07:41AM 40.7740 24.4260 265° West 462 532 38,000  Level FlightAware
07:41AM 40.7680 24.3310 265° West 462 532 38,000  Level FlightAware
07:42AM 40.7570 24.1870 264° West 464 534 38,000  Level FlightAware
07:43AM 40.7500 24.0930 264° West 464 534 38,000  Level FlightAware
07:43AM 40.7410 23.9680 265° West 465 535 38,000  Level FlightAware
07:44AM 40.7310 23.8320 265° West 463 533 38,000  Level FlightAware
07:45AM 40.7230 23.7230 265° West 461 531 38,000  Level FlightAware
07:46AM 40.7130 23.5930 264° West 461 531 38,000  Level FlightAware
07:46AM 40.7060 23.4970 265° West 460 529 38,000  Level FlightAware
07:47AM 40.6950 23.3580 264° West 458 527 38,000  Level FlightAware
07:48AM 40.6870 23.2560 264° West 457 526 38,000  Level FlightAware
07:48AM 40.6770 23.1290 264° West 458 527 38,000  Level FlightAware
07:49AM 40.6700 23.0440 264° West 458 527 38,000  Level FlightAware
07:50AM 40.6580 22.9010 264° West 458 527 38,000  Level FlightAware
07:50AM 40.6480 22.7750 264° West 458 527 38,000  Level FlightAware
07:51AM 40.6390 22.6670 264° West 459 528 38,000  Level FlightAware
07:52AM 40.6280 22.5400 264° West 459 528 38,000  Level FlightAware
07:53AM 40.6180 22.4280 263° West 459 528 38,000  Level FlightAware
07:53AM 40.6090 22.3170 264° West 458 527 38,000  Level FlightAware
07:54AM 40.5980 22.1940 263° West 456 525 38,000  Level FlightAware
07:55AM 40.5880 22.0860 263° West 457 526 38,000  Level FlightAware
07:55AM 40.5780 21.9750 263° West 459 528 38,000  Level FlightAware
07:56AM 40.5670 21.8500 263° West 459 528 38,000  Level FlightAware
07:57AM 40.5560 21.7380 263° West 460 529 38,000  Level FlightAware
07:57AM 40.5450 21.6140 263° West 459 528 38,000  Level FlightAware
07:58AM 40.5340 21.5050 262° West 458 527 38,000  Level FlightAware
07:59AM 40.5240 21.3920 263° West 462 532 38,000  Level FlightAware
08:00AM 40.5120 21.2680 263° West 463 533 38,000  Level FlightAware
08:00AM 40.5010 21.1580 263° West 464 534 38,000  Level FlightAware
08:01AM 40.4880 21.0280 263° West 464 534 38,000  Level FlightAware
08:02AM 40.4840 20.9170 267° West 467 537 38,000  Level FlightAware
08:02AM 40.4940 20.7900 276° West 469 540 38,000  Level FlightAware
08:03AM 40.5110 20.6780 281° West 467 537 38,000  Level FlightAware
08:04AM 40.5250 20.5820 281° West 469 540 38,000  Level FlightAware
08:05AM 40.5450 20.4180 279° West 469 540 38,000  Level FlightAware
08:05AM 40.5600 20.3120 281° West 468 539 38,000  Level FlightAware
08:06AM 40.5720 20.2040 278° West 466 536 38,000  Level FlightAware
08:07AM 40.5960 20.0320 280° West 38,000  Level FlightAware
08:08AM 40.6130 19.8950 279° West 465 535 38,000  Level FlightAware
08:08AM 40.6280 19.7800 280° West 466 536 38,000  Level FlightAware
08:09AM 40.6440 19.6530 279° West 466 536 38,000  Level FlightAware
08:10AM 40.6550 19.5580 279° West 462 532 38,000  Level FlightAware
08:11AM 40.6760 19.3910 279° West 460 529 38,000  Level FlightAware
08:11AM 40.6910 19.2650 279° West 460 529 38,000  Level FlightAware
08:12AM 40.7040 19.1520 279° West 460 529 38,000  Level FlightAware
08:13AM 40.7180 19.0340 279° West 461 531 38,000  Level FlightAware
08:14AM 40.7320 18.9220 279° West 462 532 38,000  Level FlightAware
08:14AM 40.7440 18.8130 278° West 463 533 38,000  Level FlightAware
08:15AM 40.7600 18.6800 279° West 463 533 38,000  Level FlightAware
08:16AM 40.7720 18.5690 278° West 462 532 38,000  Level FlightAware
08:16AM 40.7860 18.4470 279° West 463 533 38,000  Level FlightAware
08:17AM 40.7990 18.3340 279° West 464 534 38,000  Level FlightAware
08:18AM 40.8110 18.2230 278° West 463 533 38,000  Level FlightAware
08:18AM 40.8250 18.0960 278° West 461 531 38,000  Level FlightAware
08:19AM 40.8380 17.9840 279° West 460 529 38,000  Level FlightAware
08:20AM 40.8510 17.8610 278° West 460 529 38,000  Level FlightAware
08:21AM 40.8630 17.7500 278° West 461 531 38,000  Level FlightAware
08:21AM 40.8740 17.6400 278° West 461 531 38,000  Level FlightAware
08:22AM 40.8880 17.5110 278° West 461 531 38,000  Level FlightAware
08:23AM 40.9000 17.3990 278° West 461 531 38,000  Level FlightAware
08:23AM 40.9120 17.2760 277° West 459 528 38,000  Level FlightAware
08:24AM 40.9240 17.1660 278° West 458 527 38,000  Level FlightAware
08:25AM 40.9340 17.0570 277° West 458 527 38,000  Level FlightAware
08:25AM 40.9470 16.9280 278° West 459 528 38,000  Level FlightAware
08:26AM 40.9580 16.8160 277° West 460 529 38,000  Level FlightAware
08:27AM 40.9700 16.6950 278° West 459 528 38,000  Level FlightAware
08:28AM 40.9810 16.5840 278° West 458 527 38,000  Level FlightAware
08:28AM 40.9920 16.4720 277° West 458 527 38,000  Level FlightAware
08:29AM 41.0040 16.3440 277° West 458 527 38,000  Level FlightAware
08:30AM 41.0140 16.2340 277° West 459 528 38,000  Level FlightAware
08:30AM 41.0240 16.1230 277° West 459 528 38,000  Level FlightAware
08:31AM 41.0360 15.9990 277° West 460 529 38,000  Level FlightAware
08:32AM 41.0460 15.8860 277° West 461 531 38,000  Level FlightAware
08:32AM 41.0570 15.7570 276° West 462 532 38,000  Level FlightAware
08:33AM 41.0670 15.6460 277° West 461 531 38,000  Level FlightAware
08:34AM 41.0770 15.5340 277° West 459 528 38,000  Level FlightAware
08:35AM 41.0880 15.4120 277° West 460 529 38,000 -480 Level FlightAware
08:35AM 41.0990 15.3000 277° West 469 540 37,400 -1,740 Descending FlightAware
08:36AM 41.1260 15.1700 285° West 477 549 35,600 -2,640 Descending FlightAware
08:37AM 41.1480 15.0550 284° West 497 572 33,700 -2,880 Descending FlightAware
08:37AM 41.1730 14.9240 284° West 502 578 31,600 -2,640 Descending FlightAware
08:38AM 41.1960 14.8050 284° West 495 570 30,000 -2,040 Descending FlightAware
08:39AM 41.2190 14.6880 285° West 477 549 28,900 -1,920 Descending FlightAware
08:39AM 41.2420 14.5640 284° West 468 539 27,300 -2,160 Descending FlightAware
08:40AM 41.2630 14.4550 284° West 463 533 25,900 -1,860 Descending FlightAware
08:41AM 41.2860 14.3350 284° West 448 516 24,700 -1,620 Descending FlightAware
08:41AM 41.3020 14.2450 283° West 437 503 23,800 -1,440 Descending FlightAware
08:42AM 41.3180 14.1610 284° West 428 493 22,900 -1,500 Descending FlightAware
08:43AM 41.3410 14.0380 284° West 423 487 21,700 -1,560 Descending FlightAware
08:44AM 41.3660 13.8990 284° West 411 473 20,200 -1,560 Descending FlightAware
08:45AM 41.3860 13.7940 284° West 406 467 19,100 -1,500 Descending FlightAware
08:45AM 41.4050 13.6880 283° West 399 459 18,100 -1,500 Descending FlightAware
08:46AM 41.4230 13.5870 283° West 395 455 17,000 -1,500 Descending FlightAware
08:47AM 41.4370 13.5110 284° West 388 447 16,100 -1,680 Descending FlightAware
08:47AM 41.4640 13.4080 289° West 376 433 14,800 -1,440 Descending FlightAware
08:48AM 41.4950 13.3180 295° West 356 410 14,100 -900 Descending FlightAware
08:49AM 41.5060 13.2310 280° West 332 382 13,600 -600 Descending FlightAware
08:49AM 41.5060 13.1580 270° West 312 359 13,300 -600 Descending FlightAware
08:50AM 41.5060 13.0750 270° West 293 337 12,800 -720 Descending FlightAware
08:51AM 41.5060 12.9970 270° West 258 297 12,300 -600 Descending FlightAware
08:52AM 41.5060 12.9380 270° West 231 266 12,000 -900 Descending FlightAware
08:52AM 41.5050 12.8720 269° West 232 267 11,100 -1,020 Descending FlightAware
08:53AM 41.5050 12.7990 270° West 223 257 10,300 -1,020 Descending FlightAware
08:54AM 41.5040 12.7530 268° West 223 257 9,700 -1,200 Descending FlightAware
08:54AM 41.5040 12.7210 270° West 224 258 9,200 -1,200 Descending FlightAware
08:55AM 41.5040 12.6690 270° West 220 253 8,600 -1,020 Descending FlightAware
08:55AM 41.5040 12.6430 270° West 220 253 8,100 -1,200 Descending FlightAware
08:56AM 41.5030 12.5810 269° West 224 258 7,300 -1,200 Descending FlightAware
08:57AM 41.5020 12.5050 269° West 216 249 6,400 -1,080 Descending FlightAware
08:58AM 41.5090 12.4290 277° West 205 236 5,300 -1,020 Descending FlightAware
08:58AM 41.5290 12.3810 299° West 197 227 4,700 -840 Descending FlightAware
08:58AM 41.5310 12.3760 298° West 197 227 4,600 -660 Descending FlightAware
09:01AM 41.7262 12.2868 341° North  Level Estimated
09:01AM 41.6460 12.2970 341° North 174 200 3,000  Level FlightAware
09:02AM 41.6940 12.2770 343° North 155 178 2,400 -660 Descending FlightAware
09:03AM 41.7140 12.2690 343° North 140 161 1,900 -960 Descending FlightAware
09:03AM 41.7260 12.2640 343° North 124 143 1,600 -780 Descending FlightAware
09:04AM 41.7450 12.2560 343° North 122 140 1,200 -780 Descending FlightAware
09:04AM 41.7630 12.2480 342° North 123 142 800 -600 Descending FlightAware
09:05AM 41.7770 12.2420 342° North 123 142 700 -240 Descending FlightAware